Time;durP1;ratioP1;P1;durP2;ratioP2;P2;SDS_P1;SDS_P2;PMS_P1;PMS_P2;Temp;Humidity;BMP_temperature;BMP_pressure;BME280_temperature;BME280_humidity;BME280_pressure;Samples;Min_cycle;Max_cycle;Signal;HPM_P1;HPM_P2
2023/03/19 00:01:42;;;;;;;0.00;0.00;;;;;;;8.81;93.25;99831.41;4965827;28;20080;-78
2023/03/19 00:04:08;;;;;;;0.00;0.00;;;;;;;8.78;93.33;99837.41;4990048;28;20035;-79
2023/03/19 00:06:33;;;;;;;0.00;0.00;;;;;;;8.63;93.58;99826.44;5005515;28;20022;-78
2023/03/19 00:08:59;;;;;;;0.03;0.03;;;;;;;8.65;93.60;99852.34;4989949;28;20033;-79
2023/03/19 00:11:24;;;;;;;0.00;0.00;;;;;;;8.65;93.62;99854.25;5005663;28;20033;-77
2023/03/19 00:13:50;;;;;;;0.00;0.00;;;;;;;8.64;93.77;99855.34;5011977;28;20429;-78
2023/03/19 00:16:15;;;;;;;0.00;0.00;;;;;;;8.63;93.47;99850.97;4989315;28;20048;-79
2023/03/19 00:18:41;;;;;;;0.00;0.00;;;;;;;8.53;92.87;99849.03;4992551;28;20033;-79
2023/03/19 00:21:09;;;;;;;0.00;0.00;;;;;;;8.64;92.55;99866.25;5005202;28;20424;-79
2023/03/19 00:23:35;;;;;;;0.00;0.00;;;;;;;8.61;92.62;99844.97;4990425;28;20022;-78
2023/03/19 00:26:03;;;;;;;0.00;0.00;;;;;;;8.63;91.61;99845.50;4990113;28;20311;-79
2023/03/19 00:28:29;;;;;;;0.00;0.00;;;;;;;8.63;91.55;99843.63;4988431;28;20032;-78
2023/03/19 00:30:57;;;;;;;0.00;0.00;;;;;;;8.72;90.90;99863.00;5000287;28;20022;-78
2023/03/19 00:33:24;;;;;;;0.00;0.00;;;;;;;8.65;90.29;99873.34;4985612;28;20527;-79
2023/03/19 00:35:50;;;;;;;0.00;0.00;;;;;;;8.71;89.98;99885.91;4953741;28;20096;-77
2023/03/19 00:38:20;;;;;;;0.00;0.00;;;;;;;8.65;89.33;99895.94;4984635;28;20022;-78
2023/03/19 00:40:47;;;;;;;0.00;0.00;;;;;;;8.61;88.85;99892.13;4974025;28;20164;-78
2023/03/19 00:43:20;;;;;;;0.00;0.00;;;;;;;8.48;88.43;99874.34;4990386;28;20046;-77
2023/03/19 00:45:55;;;;;;;;;;;;;;;;;;;;;
2023/03/19 00:48:21;;;;;;;0.10;0.10;;;;;;;8.49;87.93;99875.19;5007733;28;20482;-77
2023/03/19 00:50:52;;;;;;;0.00;0.00;;;;;;;8.68;88.36;99895.41;5011178;28;20038;-77
2023/03/19 00:53:20;;;;;;;0.00;0.00;;;;;;;8.72;88.42;99917.53;4977982;28;20125;-79
2023/03/19 00:55:46;;;;;;;0.00;0.00;;;;;;;8.58;88.33;99894.56;4972876;28;20034;-78
2023/03/19 00:58:12;;;;;;;0.00;0.00;;;;;;;8.62;88.22;99920.22;4991326;28;20026;-78
2023/03/19 01:00:37;;;;;;;0.00;0.00;;;;;;;8.49;88.25;99911.41;4997244;28;20465;-78
2023/03/19 01:03:05;;;;;;;0.00;0.00;;;;;;;8.47;88.58;99921.75;4986441;28;21282;-78
2023/03/19 01:05:31;;;;;;;0.00;0.00;;;;;;;8.34;88.77;99900.41;4991811;28;20373;-78
2023/03/19 01:07:56;;;;;;;0.00;0.00;;;;;;;8.44;88.79;99916.84;4984794;28;20072;-78
2023/03/19 01:10:23;;;;;;;0.00;0.00;;;;;;;8.51;88.69;99930.22;4988284;28;20030;-78
2023/03/19 01:12:51;;;;;;;0.00;0.00;;;;;;;8.34;88.45;99919.47;4983440;28;20028;-78
2023/03/19 01:15:17;;;;;;;0.00;0.00;;;;;;;8.46;88.79;99933.75;5034665;28;20036;-77
2023/03/19 01:17:43;;;;;;;0.00;0.00;;;;;;;8.47;88.66;99951.75;5011764;28;20109;-77
2023/03/19 01:20:17;;;;;;;0.00;0.00;;;;;;;8.50;88.39;99945.75;4986603;28;20030;-78
2023/03/19 01:22:44;;;;;;;0.00;0.00;;;;;;;8.53;88.38;99947.97;4984778;28;20027;-78
2023/03/19 01:25:13;;;;;;;0.00;0.00;;;;;;;8.54;87.99;99952.34;4975928;28;20026;-78
2023/03/19 01:27:39;;;;;;;0.00;0.00;;;;;;;8.66;88.19;99951.28;4985336;28;20080;-78
2023/03/19 01:30:06;;;;;;;0.00;0.00;;;;;;;8.79;88.14;99950.81;4981533;28;20038;-78
2023/03/19 01:32:41;;;;;;;0.00;0.00;;;;;;;8.91;87.06;99970.50;5004688;28;20030;-77
2023/03/19 01:35:07;;;;;;;0.00;0.00;;;;;;;8.91;86.68;99981.41;4961520;28;20029;-78
2023/03/19 01:37:37;;;;;;;0.00;0.00;;;;;;;8.83;86.58;99967.44;4967067;28;20881;-79
2023/03/19 01:40:04;;;;;;;0.00;0.00;;;;;;;8.78;86.13;99976.44;4992740;28;20053;-78
2023/03/19 01:42:31;;;;;;;0.00;0.00;;;;;;;8.67;86.46;99972.00;5002547;28;20042;-77
2023/03/19 01:44:57;;;;;;;0.00;0.00;;;;;;;8.65;86.39;99987.81;4992700;28;20022;-78
2023/03/19 01:47:31;;;;;;;0.00;0.00;;;;;;;8.60;86.35;99985.03;4985057;28;20173;-78
2023/03/19 01:49:57;;;;;;;;;;;;;;;8.56;87.39;99996.47;5008994;28;20022;-78
2023/03/19 01:52:26;;;;;;;0.00;0.00;;;;;;;8.41;87.85;99977.28;5004498;28;19909;-77
2023/03/19 01:54:53;;;;;;;0.00;0.00;;;;;;;8.38;87.83;99997.72;5011240;28;20025;-78
2023/03/19 01:57:24;;;;;;;0.00;0.00;;;;;;;8.26;88.42;99991.59;4985002;28;20030;-78
2023/03/19 01:59:55;;;;;;;0.00;0.00;;;;;;;8.10;88.43;99998.84;4987222;28;20049;-78
2023/03/19 02:02:30;;;;;;;0.00;0.00;;;;;;;7.81;89.29;99985.53;5005767;28;20104;-78
2023/03/19 02:05:24;;;;;;;0.00;0.00;;;;;;;7.62;89.60;99993.25;5002216;28;20108;-77
2023/03/19 02:07:55;;;;;;;0.00;0.00;;;;;;;7.34;90.43;99981.53;4986796;28;20100;-77
2023/03/19 02:10:21;;;;;;;0.00;0.00;;;;;;;7.20;91.46;99990.31;4991576;28;20022;-78
2023/03/19 02:12:47;;;;;;;0.00;0.00;;;;;;;6.90;92.01;99978.03;5003928;28;20022;-78
2023/03/19 02:15:13;;;;;;;0.00;0.00;;;;;;;6.71;93.29;99977.50;5006429;28;20030;-77
2023/03/19 02:17:40;;;;;;;0.00;0.00;;;;;;;6.55;93.25;99980.00;4990454;28;20380;-76
2023/03/19 02:20:10;;;;;;;0.10;0.10;;;;;;;6.47;93.92;100002.16;4984686;28;20472;-78
2023/03/19 02:22:45;;;;;;;0.00;0.00;;;;;;;6.33;95.19;99998.97;4988380;28;20033;-77
2023/03/19 02:25:35;;;;;;;0.00;0.00;;;;;;;6.15;95.26;99985.63;5003087;28;20468;-76
2023/03/19 02:28:03;;;;;;;0.00;0.00;;;;;;;5.96;95.85;99983.16;4983771;28;20025;-77
2023/03/19 02:30:32;;;;;;;0.10;0.10;;;;;;;6.00;96.47;99994.34;4985521;28;20029;-76
2023/03/19 02:32:57;;;;;;;0.00;0.00;;;;;;;5.88;97.28;99986.25;5007199;28;20026;-76
2023/03/19 02:35:25;;;;;;;0.00;0.00;;;;;;;5.87;98.81;99987.31;4985930;28;20033;-78
2023/03/19 02:37:50;;;;;;;0.00;0.00;;;;;;;5.67;99.63;99966.13;4986680;28;20034;-77
2023/03/19 02:40:23;;;;;;;0.00;0.00;;;;;;;5.76;99.71;99994.47;4981120;28;20030;-77
2023/03/19 02:42:53;;;;;;;0.00;0.00;;;;;;;5.55;99.98;99982.44;4975895;28;20022;-76
2023/03/19 02:45:20;;;;;;;0.00;0.00;;;;;;;5.47;100.00;99970.09;4954113;28;20064;-78
2023/03/19 02:47:54;;;;;;;0.00;0.00;;;;;;;5.56;100.00;99989.50;4950359;28;20113;-78
2023/03/19 02:50:20;;;;;;;0.00;0.00;;;;;;;5.37;99.97;99976.16;4988189;28;20040;-77
2023/03/19 02:52:46;;;;;;;0.00;0.00;;;;;;;5.30;99.53;99975.50;4979047;28;20038;-77
2023/03/19 02:55:11;;;;;;;0.00;0.00;;;;;;;5.23;99.00;99977.53;4950803;28;20093;-78
2023/03/19 02:57:39;;;;;;;0.00;0.00;;;;;;;5.12;99.16;99967.53;4948964;28;20026;-77
2023/03/19 03:00:06;;;;;;;0.00;0.00;;;;;;;5.14;99.33;99982.50;4953311;28;20113;-77
2023/03/19 03:02:32;;;;;;;0.00;0.00;;;;;;;5.02;97.88;99974.41;4948288;28;20042;-76
2023/03/19 03:04:57;;;;;;;0.00;0.00;;;;;;;4.94;98.48;99988.31;4984436;28;20026;-77
2023/03/19 03:07:23;;;;;;;0.00;0.00;;;;;;;4.97;97.25;100014.13;4978289;28;20030;-77
2023/03/19 03:09:58;;;;;;;0.00;0.00;;;;;;;4.91;97.29;100015.91;4961592;28;20508;-76
2023/03/19 03:12:24;;;;;;;0.00;0.00;;;;;;;4.78;97.12;99994.50;4961981;28;20026;-77
2023/03/19 03:14:58;;;;;;;0.10;0.10;;;;;;;4.81;96.16;100010.25;4982429;28;20488;-77
2023/03/19 03:17:24;;;;;;;0.10;0.10;;;;;;;4.86;96.22;100018.47;4968803;28;20077;-77
2023/03/19 03:19:49;;;;;;;0.00;0.00;;;;;;;4.88;95.47;100029.94;4969159;28;20485;-77
2023/03/19 03:22:15;;;;;;;0.00;0.00;;;;;;;4.77;95.33;100033.47;4965946;28;20031;-77
2023/03/19 03:24:42;;;;;;;0.00;0.00;;;;;;;4.68;94.94;100022.97;4951373;28;20035;-77
2023/03/19 03:27:08;;;;;;;0.00;0.00;;;;;;;4.68;94.92;100028.41;4969121;28;20469;-76
2023/03/19 03:29:34;;;;;;;0.00;0.00;;;;;;;4.54;94.57;100027.84;4972050;28;20026;-77
2023/03/19 03:32:00;;;;;;;0.00;0.00;;;;;;;4.59;95.01;100051.50;4974714;28;20031;-79
2023/03/19 03:34:25;;;;;;;0.00;0.00;;;;;;;4.63;94.97;100055.38;4985583;28;20038;-77
2023/03/19 03:36:53;;;;;;;0.00;0.00;;;;;;;4.58;94.45;100052.53;4960530;28;20151;-77
2023/03/19 03:39:19;;;;;;;0.00;0.00;;;;;;;4.47;94.45;100042.56;4986190;28;20099;-78
2023/03/19 03:41:49;;;;;;;0.00;0.00;;;;;;;4.51;94.31;100063.50;4999143;28;20034;-77
2023/03/19 03:44:15;;;;;;;0.00;0.00;;;;;;;4.54;94.02;100071.16;4982378;28;20068;-78
2023/03/19 03:46:42;;;;;;;0.00;0.00;;;;;;;4.35;93.79;100029.84;4988722;28;20116;-77
2023/03/19 03:49:07;;;;;;;0.10;0.10;;;;;;;4.40;93.55;100036.44;5006170;28;20527;-78
2023/03/19 03:51:40;;;;;;;0.00;0.00;;;;;;;4.43;93.45;100052.19;4989502;28;20182;-77
2023/03/19 03:54:06;;;;;;;0.08;0.08;;;;;;;4.53;93.54;100069.50;4985896;28;20080;-79
2023/03/19 03:56:32;;;;;;;0.00;0.00;;;;;;;4.45;93.24;100064.41;4982378;28;20021;-78
2023/03/19 03:58:58;;;;;;;0.00;0.00;;;;;;;4.49;92.89;100072.91;4999571;28;20084;-78
2023/03/19 04:01:23;;;;;;;0.00;0.00;;;;;;;4.30;93.46;100053.25;5007229;28;20763;-78
2023/03/19 04:03:51;;;;;;;0.00;0.00;;;;;;;4.29;93.30;100063.25;4969099;28;20033;-78
2023/03/19 04:06:20;;;;;;;0.05;0.05;;;;;;;4.25;93.11;100056.66;4981762;28;20030;-77
2023/03/19 04:08:48;;;;;;;0.00;0.00;;;;;;;4.32;93.06;100083.59;5003022;28;20022;-78
2023/03/19 04:11:16;;;;;;;0.00;0.00;;;;;;;4.36;93.34;100101.03;4975443;28;20096;-78
2023/03/19 04:13:43;;;;;;;0.00;0.00;;;;;;;4.18;92.87;100067.56;5002214;28;20485;-77
2023/03/19 04:16:10;;;;;;;0.00;0.00;;;;;;;4.24;93.41;100097.50;4973097;28;20030;-79
2023/03/19 04:18:36;;;;;;;0.10;0.10;;;;;;;4.25;93.74;100105.38;4992269;28;20034;-77
2023/03/19 04:21:04;;;;;;;0.10;0.10;;;;;;;4.16;93.76;100101.34;4993612;28;20045;-78
2023/03/19 04:23:31;;;;;;;0.00;0.00;;;;;;;4.08;93.59;100104.38;4994366;28;20052;-78
2023/03/19 04:26:00;;;;;;;0.00;0.00;;;;;;;4.02;94.44;100106.94;4984344;28;20392;-78
2023/03/19 04:28:27;;;;;;;0.00;0.00;;;;;;;3.95;94.24;100095.41;4987975;28;20018;-78
2023/03/19 04:31:00;;;;;;;0.00;0.00;;;;;;;4.01;95.00;100116.13;5003107;28;20506;-78
2023/03/19 04:33:26;;;;;;;0.00;0.00;;;;;;;3.95;95.14;100106.22;4989733;28;20029;-78
2023/03/19 04:35:54;;;;;;;0.00;0.00;;;;;;;3.88;94.76;100107.38;5002562;28;20033;-78
2023/03/19 04:38:22;;;;;;;0.00;0.00;;;;;;;3.92;94.98;100124.81;4987340;28;20053;-79
2023/03/19 04:40:48;;;;;;;0.00;0.00;;;;;;;3.96;95.99;100129.53;4969763;28;20049;-78
2023/03/19 04:43:16;;;;;;;0.00;0.00;;;;;;;3.83;96.13;100113.47;4986798;28;20104;-79
2023/03/19 04:45:41;;;;;;;0.10;0.10;;;;;;;3.80;95.80;100105.81;4976519;28;20168;-78
2023/03/19 04:48:07;;;;;;;0.00;0.00;;;;;;;3.88;95.89;100132.53;4971483;28;20117;-78
2023/03/19 04:51:07;;;;;;;0.00;0.00;;;;;;;3.72;96.63;100112.34;4991774;28;20048;-79
2023/03/19 04:53:35;;;;;;;0.00;0.00;;;;;;;3.59;96.70;100096.31;5006858;28;20026;-78
2023/03/19 04:56:06;;;;;;;0.00;0.00;;;;;;;3.70;96.87;100119.06;4998137;28;20034;-77
2023/03/19 04:58:31;;;;;;;0.00;0.00;;;;;;;3.80;96.86;100136.41;5002633;28;20116;-77
2023/03/19 05:01:00;;;;;;;0.00;0.00;;;;;;;3.88;97.28;100159.59;4976876;28;20473;-77
2023/03/19 05:03:28;;;;;;;0.00;0.00;;;;;;;3.78;97.35;100145.78;4974292;28;20029;-79
2023/03/19 05:05:54;;;;;;;0.00;0.00;;;;;;;3.82;97.50;100146.97;4976050;28;20041;-78
2023/03/19 05:08:22;;;;;;;0.00;0.00;;;;;;;3.75;97.71;100143.53;5005638;28;20025;-80
2023/03/19 05:10:47;;;;;;;0.00;0.00;;;;;;;3.80;97.51;100157.22;4991002;28;20467;-80
2023/03/19 05:13:16;;;;;;;0.00;0.00;;;;;;;3.77;97.34;100165.78;4973201;28;20033;-77
2023/03/19 05:15:43;;;;;;;0.00;0.00;;;;;;;3.69;97.99;100166.09;5004058;28;20022;-77
2023/03/19 05:18:09;;;;;;;0.00;0.00;;;;;;;3.57;97.23;100155.22;4990801;28;20037;-78
2023/03/19 05:20:36;;;;;;;0.00;0.00;;;;;;;3.63;97.38;100174.03;4989606;28;20033;-78
2023/03/19 05:23:08;;;;;;;0.00;0.00;;;;;;;3.50;97.26;100160.69;4993414;28;20022;-77
2023/03/19 05:25:34;;;;;;;0.10;0.10;;;;;;;3.50;98.13;100157.97;5008882;28;20022;-78
2023/03/19 05:28:02;;;;;;;0.00;0.00;;;;;;;3.56;97.70;100173.28;5013649;28;20029;-78
2023/03/19 05:30:28;;;;;;;0.00;0.00;;;;;;;3.59;98.27;100189.09;4969638;28;20384;-79
2023/03/19 05:32:56;;;;;;;0.10;0.10;;;;;;;3.54;97.27;100180.81;4992263;28;20026;-77
2023/03/19 05:35:25;;;;;;;0.00;0.00;;;;;;;3.55;97.70;100185.19;5016748;28;20084;-77
2023/03/19 05:37:50;;;;;;;0.10;0.10;;;;;;;3.50;97.79;100185.00;4999798;28;20133;-78
2023/03/19 05:40:16;;;;;;;0.10;0.10;;;;;;;3.45;97.33;100183.00;4995751;28;20133;-79
2023/03/19 05:42:41;;;;;;;0.00;0.00;;;;;;;3.39;97.50;100194.72;4958327;28;20038;-78
2023/03/19 05:45:16;;;;;;;0.00;0.00;;;;;;;3.53;97.90;100227.00;4984325;28;20411;-77
2023/03/19 05:47:42;;;;;;;0.00;0.00;;;;;;;3.50;98.14;100217.47;5001156;28;20112;-77
2023/03/19 05:50:10;;;;;;;0.00;0.00;;;;;;;3.45;97.84;100214.63;4980414;28;20511;-79
2023/03/19 05:52:36;;;;;;;0.00;0.00;;;;;;;3.35;98.10;100192.69;5014618;28;20037;-77
2023/03/19 05:55:03;;;;;;;0.00;0.00;;;;;;;3.42;97.75;100212.38;4978902;28;20384;-78
2023/03/19 05:57:29;;;;;;;0.00;0.00;;;;;;;3.35;97.49;100212.41;4996048;28;20041;-76
2023/03/19 05:59:55;;;;;;;0.00;0.00;;;;;;;3.38;97.77;100230.06;4989723;28;20014;-78
2023/03/19 06:02:21;;;;;;;0.00;0.00;;;;;;;3.34;98.14;100226.16;4992259;28;20468;-77
2023/03/19 06:04:46;;;;;;;0.00;0.00;;;;;;;3.34;97.78;100231.56;4993028;28;20037;-78
2023/03/19 06:07:12;;;;;;;0.10;0.10;;;;;;;3.39;97.50;100242.53;4982296;28;20033;-78
2023/03/19 06:09:37;;;;;;;0.00;0.00;;;;;;;3.37;97.98;100233.81;4979496;28;20463;-77
2023/03/19 06:12:05;;;;;;;0.00;0.00;;;;;;;3.26;97.51;100211.06;5017967;28;20034;-77
2023/03/19 06:14:33;;;;;;;0.00;0.00;;;;;;;3.32;98.11;100227.19;4996543;28;20045;-76
2023/03/19 06:16:58;;;;;;;0.00;0.00;;;;;;;3.39;97.51;100243.38;4980389;28;20071;-77
2023/03/19 06:19:24;;;;;;;0.00;0.00;;;;;;;3.35;97.74;100230.53;5013928;28;20026;-77
2023/03/19 06:21:51;;;;;;;0.00;0.00;;;;;;;3.37;97.75;100231.13;4970026;28;20073;-78
2023/03/19 06:24:21;;;;;;;0.00;0.00;;;;;;;3.34;97.27;100228.88;4965278;28;20043;-78
2023/03/19 06:26:46;;;;;;;0.00;0.00;;;;;;;3.51;97.11;100251.56;4971479;28;20021;-78
2023/03/19 06:29:12;;;;;;;0.00;0.00;;;;;;;3.55;97.20;100257.34;5004479;28;20057;-79
2023/03/19 06:31:40;;;;;;;0.00;0.00;;;;;;;3.49;97.06;100242.88;4977335;28;20112;-78
2023/03/19 06:34:06;;;;;;;0.10;0.10;;;;;;;3.53;96.27;100262.97;4972393;28;20021;-75
2023/03/19 06:36:34;;;;;;;0.00;0.00;;;;;;;3.57;96.08;100277.69;4992480;28;20032;-76
2023/03/19 06:39:00;;;;;;;0.00;0.00;;;;;;;3.49;96.52;100269.91;4992603;28;20045;-74
2023/03/19 06:41:26;;;;;;;0.00;0.00;;;;;;;3.56;96.51;100281.44;4971643;28;20034;-79
2023/03/19 06:43:52;;;;;;;0.00;0.00;;;;;;;3.46;95.86;100271.16;4954550;28;20034;-79
2023/03/19 06:46:17;;;;;;;0.10;0.10;;;;;;;3.45;95.97;100284.91;5005010;28;20117;-79
2023/03/19 06:50:06;;;;;;;;;;;;;;;;;;;;;
2023/03/19 07:24:51;;;;;;;0.00;0.00;;;;;;;3.72;94.54;100312.50;4671617;30;20055;-78
2023/03/19 07:27:55;;;;;;;0.00;0.00;;;;;;;3.78;94.30;100317.03;4719509;30;20179;-77
2023/03/19 07:31:15;;;;;;;;;;;;;;;;;;;;;
2023/03/19 07:34:55;;;;;;;;;;;;;;;;;;;;;
2023/03/19 07:37:36;;;;;;;;;;;;;;;;;;;;;
2023/03/19 07:46:31;;;;;;;;;;;;;;;;;;;;;
2023/03/19 07:49:36;;;;;;;;;;;;;;;;;;;;;
2023/03/19 07:52:32;;;;;;;0.00;0.00;;;;;;;5.71;88.41;100353.34;4910795;29;20108;-79
2023/03/19 07:55:21;;;;;;;0.00;0.00;;;;;;;5.53;85.52;100337.19;4903391;29;20107;-79
2023/03/19 07:58:07;;;;;;;0.00;0.00;;;;;;;5.59;86.59;100374.22;4944130;28;20053;-78
2023/03/19 08:00:32;;;;;;;0.00;0.00;;;;;;;5.80;86.35;100370.13;4964057;28;20039;-77
2023/03/19 08:03:00;;;;;;;0.00;0.00;;;;;;;6.62;85.22;100363.75;4960230;28;20030;-77
2023/03/19 08:05:26;;;;;;;0.00;0.00;;;;;;;8.04;79.40;100353.91;4972512;28;20034;-80
2023/03/19 08:07:52;;;;;;;0.00;0.00;;;;;;;9.82;71.06;100347.03;4965882;28;20053;-77
2023/03/19 08:10:17;;;;;;;0.00;0.00;;;;;;;11.46;64.05;100356.94;4964287;28;20369;-78
2023/03/19 08:14:00;;;;;;;;;;;;;;;;;;;;;
2023/03/19 08:16:26;;;;;;;0.00;0.00;;;;;;;15.37;50.73;100384.28;4905429;28;20163;-79
2023/03/19 08:19:20;;;;;;;0.00;0.00;;;;;;;16.21;47.31;100375.16;4966549;28;20030;-80
2023/03/19 08:30:17;;;;;;;;;;;;;;;;;;;;;
2023/03/19 08:54:53;;;;;;;0.00;0.00;;;;;;;26.29;27.19;100453.88;4864081;29;20507;-77
2023/03/19 08:57:21;;;;;;;0.00;0.00;;;;;;;26.71;24.35;100441.00;4858531;29;20041;-78
2023/03/19 08:59:46;;;;;;;0.00;0.00;;;;;;;27.67;25.59;100449.19;4917786;29;20042;-79
2023/03/19 09:02:19;;;;;;;0.00;0.00;;;;;;;27.39;22.76;100451.63;4947029;28;20485;-78
2023/03/19 09:04:45;;;;;;;0.00;0.00;;;;;;;23.99;26.27;100429.84;4968881;28;20741;-78
2023/03/19 09:07:16;;;;;;;0.00;0.00;;;;;;;20.78;30.60;100445.13;4973337;28;20110;-78
2023/03/19 09:09:43;;;;;;;0.00;0.00;;;;;;;18.13;34.26;100452.75;5001187;28;20030;-78
2023/03/19 09:12:10;;;;;;;0.00;0.00;;;;;;;16.78;37.11;100451.34;4960896;28;20038;-79
2023/03/19 09:14:36;;;;;;;0.00;0.00;;;;;;;15.57;39.22;100451.25;4958324;28;20080;-78
2023/03/19 09:17:10;;;;;;;0.00;0.00;;;;;;;14.63;41.25;100446.16;4967820;28;20377;-78
2023/03/19 09:19:35;;;;;;;0.00;0.00;;;;;;;14.18;42.33;100453.75;4956058;28;20173;-78
2023/03/19 09:22:11;;;;;;;0.00;0.00;;;;;;;13.99;43.24;100444.53;4971304;28;20113;-75
2023/03/19 09:24:37;;;;;;;0.00;0.00;;;;;;;13.88;43.41;100471.31;4959164;28;20045;-75
2023/03/19 09:27:02;;;;;;;0.00;0.00;;;;;;;13.54;44.77;100466.63;4951142;28;20051;-75
2023/03/19 09:29:28;;;;;;;0.00;0.00;;;;;;;13.60;45.25;100481.97;4974889;28;20031;-76
2023/03/19 09:31:56;;;;;;;0.00;0.00;;;;;;;13.68;45.10;100459.38;4949306;28;20058;-74
2023/03/19 09:34:22;;;;;;;0.00;0.00;;;;;;;14.06;45.27;100484.38;4971470;28;20031;-74
2023/03/19 09:36:47;;;;;;;0.00;0.00;;;;;;;14.34;43.86;100472.81;4979446;28;20507;-75
2023/03/19 09:39:13;;;;;;;0.00;0.00;;;;;;;14.72;43.94;100484.84;4970905;28;20431;-76
2023/03/19 09:42:05;;;;;;;0.00;0.00;;;;;;;15.20;43.40;100475.75;4986958;28;20420;-74
2023/03/19 09:44:40;;;;;;;0.00;0.00;;;;;;;15.82;42.23;100483.94;4980043;28;20026;-77
2023/03/19 09:47:30;;;;;;;0.03;0.03;;;;;;;16.47;41.57;100476.78;4990387;28;20060;-77
2023/03/19 09:49:58;;;;;;;0.00;0.00;;;;;;;20.75;37.06;100475.22;4965102;28;20038;-78
2023/03/19 09:52:48;;;;;;;0.00;0.00;;;;;;;24.19;29.28;100483.84;4966240;28;20112;-76
2023/03/19 09:55:31;;;;;;;0.00;0.00;;;;;;;26.52;26.34;100492.31;4979970;28;20020;-74
2023/03/19 09:57:57;;;;;;;0.00;0.00;;;;;;;26.72;24.99;100511.91;4986422;28;20582;-75
2023/03/19 10:00:44;;;;;;;;;;;;;;;;;;;;;
2023/03/19 10:04:08;;;;;;;0.00;0.00;;;;;;;23.83;28.61;100509.91;5002246;28;20030;-77
2023/03/19 10:06:36;;;;;;;0.00;0.00;;;;;;;22.58;29.04;100504.78;5003901;28;20034;-76
2023/03/19 10:09:07;;;;;;;0.00;0.00;;;;;;;21.61;30.80;100491.75;5003242;28;20021;-76
2023/03/19 10:11:39;;;;;;;0.00;0.00;;;;;;;20.70;31.46;100513.50;4993200;28;20546;-76
2023/03/19 10:14:25;;;;;;;0.00;0.00;;;;;;;19.87;32.83;100498.75;5004742;28;20100;-77
2023/03/19 10:16:57;;;;;;;0.00;0.00;;;;;;;19.30;33.50;100505.22;4989075;28;20357;-76
2023/03/19 10:19:38;;;;;;;0.00;0.00;;;;;;;18.84;33.87;100510.91;4979436;28;20030;-75
2023/03/19 10:22:13;;;;;;;0.00;0.00;;;;;;;18.58;34.92;100505.25;5002240;28;20033;-79
2023/03/19 10:24:43;;;;;;;0.00;0.00;;;;;;;18.82;35.05;100506.81;4993803;28;20026;-77
2023/03/19 10:27:15;;;;;;;0.00;0.00;;;;;;;19.39;35.02;100516.31;5004806;28;20021;-78
2023/03/19 10:29:42;;;;;;;0.00;0.00;;;;;;;20.68;33.22;100511.06;4984383;28;20029;-77
2023/03/19 10:32:33;;;;;;;0.00;0.00;;;;;;;22.72;32.16;100510.84;4976014;28;20030;-78
2023/03/19 10:35:04;;;;;;;0.00;0.00;;;;;;;23.84;28.83;100512.34;4984764;28;20533;-79
2023/03/19 10:37:30;;;;;;;0.00;0.00;;;;;;;23.42;28.26;100501.56;5006850;28;20472;-78
2023/03/19 10:40:15;;;;;;;0.00;0.00;;;;;;;22.36;28.81;100506.81;4985020;28;20034;-77
2023/03/19 10:42:47;;;;;;;0.00;0.00;;;;;;;22.37;30.13;100505.66;4979572;28;20107;-78
2023/03/19 10:45:30;;;;;;;0.00;0.00;;;;;;;22.80;29.21;100509.91;5005530;28;20036;-77
2023/03/19 10:47:56;;;;;;;0.00;0.00;;;;;;;21.25;30.52;100508.97;5001789;28;20022;-77
2023/03/19 10:50:42;;;;;;;0.00;0.00;;;;;;;20.33;32.08;100504.75;4990377;28;20399;-78
2023/03/19 10:53:13;;;;;;;0.00;0.00;;;;;;;20.26;32.92;100505.25;4988951;28;20755;-77
2023/03/19 10:55:52;;;;;;;0.00;0.00;;;;;;;20.01;32.30;100509.69;4978319;28;20444;-78
2023/03/19 10:58:28;;;;;;;0.00;0.00;;;;;;;19.62;33.14;100517.81;4963425;28;20033;-78
2023/03/19 11:01:14;;;;;;;0.00;0.00;;;;;;;20.94;33.28;100504.56;4969540;28;20597;-76
2023/03/19 11:03:50;;;;;;;0.00;0.00;;;;;;;25.59;27.63;100511.69;4984932;28;20122;-77
2023/03/19 11:06:31;;;;;;;0.00;0.00;;;;;;;25.79;25.13;100518.09;4980575;28;20023;-78
2023/03/19 11:09:14;;;;;;;0.00;0.00;;;;;;;22.84;26.94;100505.25;4976569;28;20539;-78
2023/03/19 11:11:46;;;;;;;0.00;0.00;;;;;;;20.53;30.28;100519.88;4965497;28;20094;-77
2023/03/19 11:14:16;;;;;;;0.00;0.00;;;;;;;19.34;32.16;100523.66;4976009;28;20393;-78
2023/03/19 11:16:56;;;;;;;0.00;0.00;;;;;;;18.79;33.78;100513.00;4978114;28;20029;-77
2023/03/19 11:19:40;;;;;;;0.00;0.00;;;;;;;18.80;34.00;100509.91;4977407;28;20033;-78
2023/03/19 11:22:16;;;;;;;0.00;0.00;;;;;;;20.43;33.09;100507.19;4964927;28;20068;-78
2023/03/19 11:24:53;;;;;;;0.00;0.00;;;;;;;25.17;28.11;100520.69;4987541;28;20030;-78
2023/03/19 11:27:27;;;;;;;0.00;0.00;;;;;;;27.01;23.63;100530.03;4985077;28;20110;-78
2023/03/19 11:30:00;;;;;;;0.00;0.00;;;;;;;24.03;25.73;100513.72;4975067;28;20026;-78
2023/03/19 11:33:14;;;;;;;0.00;0.00;;;;;;;21.97;28.38;100518.13;4981906;28;20053;-77
2023/03/19 11:36:09;;;;;;;0.00;0.00;;;;;;;20.84;30.17;100532.75;4924612;28;20037;-78
2023/03/19 11:38:53;;;;;;;;;;;;;;;;;;;;;
2023/03/19 11:41:29;;;;;;;0.00;0.00;;;;;;;19.91;31.50;100524.72;4983604;28;20359;-78
2023/03/19 11:44:45;;;;;;;0.00;0.00;;;;;;;19.74;32.62;100533.81;4986711;28;20030;-76
2023/03/19 11:47:10;;;;;;;0.00;0.00;;;;;;;19.40;33.09;100532.63;4950808;28;20041;-78
2023/03/19 11:50:17;;;;;;;0.00;0.00;;;;;;;19.01;33.98;100524.06;4979157;28;20034;-78
2023/03/19 11:53:00;;;;;;;0.00;0.00;;;;;;;20.40;33.50;100525.31;4977539;28;20058;-77
2023/03/19 11:56:03;;;;;;;0.00;0.00;;;;;;;20.39;32.42;100533.97;5005402;28;20029;-78
2023/03/19 11:58:58;;;;;;;0.00;0.00;;;;;;;19.67;33.41;100539.06;4944851;28;20049;-78
2023/03/19 12:01:48;;;;;;;0.00;0.00;;;;;;;18.62;34.21;100528.41;4990481;28;20036;-78
2023/03/19 12:04:15;;;;;;;0.00;0.00;;;;;;;18.01;34.96;100543.81;5011468;28;20242;-79
2023/03/19 12:07:02;;;;;;;0.00;0.00;;;;;;;17.69;36.15;100537.31;5001166;28;20119;-77
2023/03/19 12:09:38;;;;;;;0.00;0.00;;;;;;;17.76;36.25;100534.97;5009285;28;20033;-78
2023/03/19 12:12:25;;;;;;;0.00;0.00;;;;;;;17.70;36.31;100527.91;4984902;28;20053;-77
2023/03/19 12:15:12;;;;;;;0.00;0.00;;;;;;;17.13;35.81;100534.66;4988634;28;20025;-77
2023/03/19 12:18:02;;;;;;;0.00;0.00;;;;;;;16.48;37.04;100519.81;4973787;28;20041;-77
2023/03/19 12:20:34;;;;;;;0.00;0.00;;;;;;;16.47;37.99;100526.47;4999115;28;20026;-78
2023/03/19 12:23:13;;;;;;;0.00;0.00;;;;;;;16.28;37.84;100525.69;4986080;28;20479;-79
2023/03/19 12:26:03;;;;;;;0.00;0.00;;;;;;;15.88;39.01;100504.81;4991484;28;20464;-78
2023/03/19 12:28:44;;;;;;;0.00;0.00;;;;;;;15.97;39.45;100518.72;4985606;28;20049;-77
2023/03/19 12:31:43;;;;;;;0.00;0.00;;;;;;;16.40;39.24;100510.31;5002445;28;20021;-78
2023/03/19 12:34:23;;;;;;;0.00;0.00;;;;;;;17.32;38.21;100514.34;4987006;28;20032;-77
2023/03/19 12:37:12;;;;;;;0.00;0.00;;;;;;;17.33;37.24;100518.75;5004538;28;20088;-77
2023/03/19 12:39:45;;;;;;;0.00;0.00;;;;;;;16.79;38.13;100510.97;4983115;28;20088;-77
2023/03/19 12:42:21;;;;;;;0.00;0.00;;;;;;;16.38;37.74;100501.53;5012057;28;20386;-78
2023/03/19 12:44:53;;;;;;;0.00;0.00;;;;;;;17.07;37.60;100513.78;5007616;28;20549;-78
2023/03/19 12:47:31;;;;;;;0.00;0.00;;;;;;;20.35;34.72;100517.16;5011005;28;20084;-77
2023/03/19 12:50:19;;;;;;;0.00;0.00;;;;;;;24.73;26.60;100501.25;4986915;28;20025;-76
2023/03/19 12:52:50;;;;;;;0.00;0.00;;;;;;;24.43;27.63;100518.41;5004141;28;20065;-77
2023/03/19 12:55:35;;;;;;;0.00;0.00;;;;;;;23.01;28.20;100517.34;4993248;28;20027;-77
2023/03/19 12:58:05;;;;;;;;;;;;;;;21.55;29.74;100517.31;4986408;28;20141;-78
2023/03/19 13:00:41;;;;;;;0.00;0.00;;;;;;;20.62;31.65;100512.34;4991928;28;19914;-77
2023/03/19 13:03:29;;;;;;;0.00;0.00;;;;;;;20.45;32.42;100520.75;4988685;28;20111;-80
2023/03/19 13:06:02;;;;;;;0.00;0.00;;;;;;;20.58;32.94;100491.94;4988597;28;20073;-80
2023/03/19 13:08:36;;;;;;;0.00;0.00;;;;;;;20.67;31.54;100514.16;4991834;28;20341;-78
2023/03/19 13:11:10;;;;;;;0.00;0.00;;;;;;;20.12;31.40;100513.78;5015990;28;20460;-78
2023/03/19 13:13:41;;;;;;;0.00;0.00;;;;;;;19.56;32.12;100519.13;5005317;28;20037;-79
2023/03/19 13:16:25;;;;;;;0.00;0.00;;;;;;;19.45;33.00;100510.31;4998800;28;20121;-77
2023/03/19 13:19:12;;;;;;;0.00;0.00;;;;;;;19.62;33.47;100506.72;4989278;28;20029;-79
2023/03/19 13:21:39;;;;;;;0.00;0.00;;;;;;;19.87;33.32;100504.31;5008172;28;20064;-78
2023/03/19 13:24:23;;;;;;;0.00;0.00;;;;;;;22.48;32.41;100517.97;4994659;28;20018;-77